EHLW

Leeuwarden Air Base Airport

Leeuwarden, The Netherlands
METAR EHLW 150325Z AUTO 21005KT 170V230 9999 OVC049 18/15 Q1015 BLU
Observed Flight Rules
Aug-15 @ 03:25 UTC (11 minutes ago) Visual Flight Rules
Wind Visibility Clouds
210° at 5 knots 10,000+ meters
  • Overcast at 4,900' AGL
Temperatures Readings
Current 18°C / 64°F
Dewpoint 15°C / 59°F
Humidity 83%
Altimeter 29.97" Hg
Pressure 1015 hPa
Elevation 2
METAR EHLW 150325Z AUTO 21005KT 170V230 9999 OVC049 18/15 Q1015 BLU
Observed Flight Rules
Aug-15 @ 03:25 UTC
(11 minutes ago)
VFR
Wind Visibility
210° at 5 knots 10,000+ meters
Clouds
  • Overcast at 4,900' AGL
Temperature Dewpoint
18°C / 64°F 15°C / 59°F
Humidity Altimeter Pressure
83% 29.97" Hg 1015 hPa